createdAt,value
2023-03-31T00:00:50.233Z,0.00
2023-03-31T00:03:25.718Z,-0.10
2023-03-31T00:05:59.373Z,-0.10
2023-03-31T00:08:30.859Z,-0.20
2023-03-31T00:11:01.880Z,-0.10
2023-03-31T00:13:30.102Z,-0.20
2023-03-31T00:15:59.157Z,-0.20
2023-03-31T00:18:26.621Z,-0.30
2023-03-31T00:20:54.756Z,-0.20
2023-03-31T00:23:27.798Z,-0.30
2023-03-31T00:26:04.278Z,-0.30
2023-03-31T00:28:31.450Z,-0.30
2023-03-31T00:31:03.130Z,-0.30
2023-03-31T00:33:30.301Z,-0.30
2023-03-31T00:36:06.930Z,-0.30
2023-03-31T00:38:34.853Z,-0.30
2023-03-31T00:41:02.912Z,-0.30
2023-03-31T00:43:33.420Z,-0.30
2023-03-31T00:46:15.686Z,-0.40
2023-03-31T00:48:58.810Z,-0.30
2023-03-31T00:51:30.033Z,-0.30
2023-03-31T00:54:00.807Z,-0.30
2023-03-31T00:56:34.559Z,-0.30
2023-03-31T00:59:04.928Z,-0.30
2023-03-31T01:01:32.095Z,-0.30
2023-03-31T01:03:59.642Z,-0.30
2023-03-31T01:06:31.181Z,-0.30
2023-03-31T01:08:58.408Z,-0.30
2023-03-31T01:11:27.575Z,-0.30
2023-03-31T01:13:56.765Z,-0.30
2023-03-31T01:16:23.908Z,-0.30
2023-03-31T01:18:51.295Z,-0.30
2023-03-31T01:22:09.106Z,-0.40
2023-03-31T01:24:53.903Z,-0.40
2023-03-31T01:27:37.627Z,-0.30
2023-03-31T01:30:22.815Z,-0.40
2023-03-31T01:33:17.114Z,-0.40
2023-03-31T01:36:06.565Z,-0.40
2023-03-31T01:38:54.737Z,-0.30
2023-03-31T01:41:56.678Z,-0.30
2023-03-31T01:44:53.461Z,-0.40
2023-03-31T01:47:33.416Z,-0.30
2023-03-31T01:50:13.130Z,-0.30
2023-03-31T01:52:44.198Z,-0.30
2023-03-31T01:55:24.525Z,-0.30
2023-03-31T01:58:14.135Z,-0.30
2023-03-31T02:01:02.104Z,-0.30
2023-03-31T02:03:34.545Z,-0.40
2023-03-31T02:06:10.884Z,-0.40
2023-03-31T02:09:01.232Z,-0.40
2023-03-31T02:11:30.279Z,-0.40
2023-03-31T02:14:02.805Z,-0.40
2023-03-31T02:16:33.646Z,-0.40
2023-03-31T02:19:04.128Z,-0.40
2023-03-31T02:21:33.549Z,-0.50
2023-03-31T02:24:07.931Z,-0.40
2023-03-31T02:26:43.168Z,-0.40
2023-03-31T02:29:10.078Z,-0.50
2023-03-31T02:31:37.147Z,-0.50
2023-03-31T02:34:04.171Z,-0.50
2023-03-31T02:36:31.474Z,-0.50
2023-03-31T02:39:20.458Z,-0.50
2023-03-31T02:41:47.393Z,-0.50
2023-03-31T02:44:15.054Z,-0.60
2023-03-31T02:46:42.064Z,-0.50
2023-03-31T02:49:11.059Z,-0.50
2023-03-31T02:51:49.995Z,-0.50
2023-03-31T02:54:44.723Z,-0.50
2023-03-31T02:57:47.173Z,-0.50
2023-03-31T03:00:41.774Z,-0.50
2023-03-31T03:03:33.286Z,-0.50
2023-03-31T03:06:14.221Z,-0.50
2023-03-31T03:09:01.906Z,-0.50
2023-03-31T03:11:44.063Z,-0.50
2023-03-31T03:14:18.660Z,-0.50
2023-03-31T03:16:50.567Z,-0.50
2023-03-31T03:19:23.679Z,-0.50
2023-03-31T03:21:50.842Z,-0.50
2023-03-31T03:24:19.114Z,-0.50
2023-03-31T03:26:46.525Z,-0.50
2023-03-31T03:29:15.203Z,-0.50
2023-03-31T03:31:42.910Z,-0.50
2023-03-31T03:34:10.108Z,-0.50
2023-03-31T03:36:38.769Z,-0.60
2023-03-31T03:39:08.011Z,-0.50
2023-03-31T03:41:35.279Z,-0.50
2023-03-31T03:44:02.203Z,-0.50
2023-03-31T03:46:29.733Z,-0.50
2023-03-31T03:48:57.047Z,-0.50
2023-03-31T03:51:24.292Z,-0.50
2023-03-31T03:53:51.348Z,-0.60
2023-03-31T03:56:18.744Z,-0.60
2023-03-31T03:58:45.696Z,-0.60
2023-03-31T04:01:12.682Z,-0.50
2023-03-31T04:03:39.723Z,-0.50
2023-03-31T04:06:07.038Z,-0.60
2023-03-31T04:08:34.109Z,-0.60
2023-03-31T04:11:01.624Z,-0.60
2023-03-31T04:13:29.015Z,-0.70
2023-03-31T04:15:56.108Z,-0.60
2023-03-31T04:18:23.373Z,-0.60
2023-03-31T04:21:06.021Z,-0.50
2023-03-31T04:23:34.599Z,-0.60
2023-03-31T04:26:02.811Z,-0.60
2023-03-31T04:28:35.176Z,-0.70
2023-03-31T04:31:04.117Z,-0.60
2023-03-31T04:33:31.043Z,-0.70
2023-03-31T04:35:58.377Z,-0.70
2023-03-31T04:38:27.449Z,-0.60
2023-03-31T04:40:55.249Z,-0.60
2023-03-31T04:43:22.498Z,-0.60
2023-03-31T04:45:49.504Z,-0.60
2023-03-31T04:48:16.757Z,-0.60
2023-03-31T04:50:44.158Z,-0.60
2023-03-31T04:53:11.269Z,-0.60
2023-03-31T04:55:38.647Z,-0.50
2023-03-31T04:58:05.672Z,-0.70
2023-03-31T05:00:33.080Z,-0.60
2023-03-31T05:03:00.433Z,-0.70
2023-03-31T05:05:27.704Z,-0.50
2023-03-31T05:07:54.938Z,-0.60
2023-03-31T05:10:22.065Z,-0.50
2023-03-31T05:12:49.540Z,-0.60
2023-03-31T05:15:16.784Z,-0.60
2023-03-31T05:17:43.829Z,-0.60
2023-03-31T05:20:11.986Z,-0.60
2023-03-31T05:22:41.300Z,-0.60
2023-03-31T05:25:11.855Z,-0.50
2023-03-31T05:27:38.965Z,-0.60
2023-03-31T05:30:08.282Z,-0.60
2023-03-31T05:32:35.323Z,-0.60
2023-03-31T05:35:02.601Z,-0.60
2023-03-31T05:37:29.728Z,-0.50
2023-03-31T05:39:56.707Z,-0.60
2023-03-31T05:42:24.013Z,-0.50
2023-03-31T05:44:51.043Z,-0.60
2023-03-31T05:47:18.362Z,-0.50
2023-03-31T05:49:45.824Z,-0.40
2023-03-31T05:52:12.791Z,-0.40
2023-03-31T05:54:40.666Z,-0.50
2023-03-31T05:57:07.691Z,-0.50
2023-03-31T05:59:36.261Z,-0.40
2023-03-31T06:02:03.705Z,-0.40
2023-03-31T06:04:32.748Z,-0.40
2023-03-31T06:07:00.181Z,-0.30
2023-03-31T06:09:27.270Z,-0.30
2023-03-31T06:11:54.359Z,-0.40
2023-03-31T06:14:21.341Z,-0.40
2023-03-31T06:16:48.370Z,-0.30
2023-03-31T06:19:15.841Z,-0.40
2023-03-31T06:21:42.897Z,-0.30
2023-03-31T06:24:10.408Z,-0.40
2023-03-31T06:26:37.407Z,-0.40
2023-03-31T06:29:04.424Z,-0.40
2023-03-31T06:31:32.740Z,-0.30
2023-03-31T06:33:59.937Z,-0.30
2023-03-31T06:36:27.031Z,-0.30
2023-03-31T06:38:54.083Z,-0.30
2023-03-31T06:41:22.808Z,-0.30
2023-03-31T06:43:50.153Z,-0.30
2023-03-31T06:46:17.644Z,-0.20
2023-03-31T06:48:44.756Z,-0.10
2023-03-31T06:51:12.021Z,-0.10
2023-03-31T06:53:39.351Z,-0.10
2023-03-31T06:56:07.022Z,0.00
2023-03-31T06:58:34.428Z,0.00
2023-03-31T07:01:04.237Z,-0.10
2023-03-31T07:03:32.267Z,0.00
2023-03-31T07:05:59.372Z,0.00
2023-03-31T07:08:26.724Z,-0.10
2023-03-31T07:10:59.277Z,0.10
2023-03-31T07:13:27.368Z,0.10
2023-03-31T07:15:55.413Z,0.10
2023-03-31T07:18:26.359Z,0.10
2023-03-31T07:20:53.561Z,0.20
2023-03-31T07:23:21.066Z,0.20
2023-03-31T07:25:48.451Z,0.20
2023-03-31T07:28:16.266Z,0.20
2023-03-31T07:30:43.524Z,0.20
2023-03-31T07:33:11.102Z,0.20
2023-03-31T07:35:40.431Z,0.20
2023-03-31T07:38:12.851Z,0.20
2023-03-31T07:40:40.917Z,0.30
2023-03-31T07:43:08.103Z,0.30
2023-03-31T07:45:36.954Z,0.30
2023-03-31T07:48:04.018Z,0.40
2023-03-31T07:50:30.992Z,0.40
2023-03-31T07:52:58.128Z,0.40
2023-03-31T07:55:26.548Z,0.50
2023-03-31T07:57:53.827Z,0.40
2023-03-31T08:00:21.437Z,0.50
2023-03-31T08:02:48.763Z,0.50
2023-03-31T08:05:18.257Z,0.60
2023-03-31T08:07:47.375Z,0.70
2023-03-31T08:10:18.658Z,0.70
2023-03-31T08:12:45.756Z,0.70
2023-03-31T08:15:13.127Z,0.80
2023-03-31T08:17:40.806Z,0.80
2023-03-31T08:20:10.392Z,0.80
2023-03-31T08:22:38.627Z,0.80
2023-03-31T08:25:08.637Z,0.80
2023-03-31T08:27:37.824Z,0.90
2023-03-31T08:30:06.778Z,0.90
2023-03-31T08:32:35.006Z,0.90
2023-03-31T08:35:01.994Z,0.90
2023-03-31T08:37:29.095Z,0.90
2023-03-31T08:39:56.353Z,1.00
2023-03-31T08:42:26.436Z,1.00
2023-03-31T08:45:20.755Z,1.00
2023-03-31T08:47:52.034Z,1.10
2023-03-31T08:50:26.102Z,1.10
2023-03-31T08:53:05.890Z,1.10
2023-03-31T08:55:53.610Z,1.10
2023-03-31T08:58:50.076Z,1.10
2023-03-31T09:01:52.190Z,1.10
2023-03-31T09:04:53.045Z,1.10
2023-03-31T09:07:40.823Z,1.20
2023-03-31T09:10:22.967Z,1.20
2023-03-31T09:13:10.509Z,1.10
2023-03-31T09:15:51.415Z,1.20
2023-03-31T09:18:36.798Z,1.20
2023-03-31T09:21:19.639Z,1.30
2023-03-31T09:24:04.385Z,1.30
2023-03-31T09:27:06.538Z,1.20
2023-03-31T09:29:56.616Z,1.30
2023-03-31T09:32:26.409Z,1.20
2023-03-31T09:34:58.100Z,1.30
2023-03-31T09:37:30.374Z,1.40
2023-03-31T09:40:01.227Z,1.40
2023-03-31T09:42:28.246Z,1.40
2023-03-31T09:44:56.198Z,1.50
2023-03-31T09:47:31.476Z,1.50
2023-03-31T09:49:58.423Z,1.50
2023-03-31T09:52:35.030Z,1.50
2023-03-31T09:55:05.699Z,1.50
2023-03-31T09:57:39.780Z,1.50
2023-03-31T10:00:16.484Z,1.60
2023-03-31T10:02:57.413Z,1.50
2023-03-31T10:05:51.095Z,1.50
2023-03-31T10:08:23.877Z,1.40
2023-03-31T10:10:56.578Z,1.40
2023-03-31T10:13:27.173Z,1.30
2023-03-31T10:16:01.609Z,1.30
2023-03-31T10:18:41.115Z,1.40
2023-03-31T10:21:27.203Z,1.30
2023-03-31T10:23:54.986Z,1.20
2023-03-31T10:26:26.603Z,1.20
2023-03-31T10:28:55.703Z,1.20
2023-03-31T10:31:27.057Z,1.20
2023-03-31T10:33:55.313Z,1.10
2023-03-31T10:36:26.615Z,1.20
2023-03-31T10:38:55.438Z,1.10
2023-03-31T10:41:26.295Z,1.20
2023-03-31T10:43:56.121Z,1.30
2023-03-31T10:46:47.639Z,1.30
2023-03-31T10:49:24.232Z,1.40
2023-03-31T10:51:56.761Z,1.50
2023-03-31T10:54:24.236Z,1.60
2023-03-31T10:57:03.663Z,1.60
2023-03-31T10:59:33.678Z,1.50
2023-03-31T11:02:31.698Z,1.50
2023-03-31T11:05:15.893Z,1.50
2023-03-31T11:07:54.812Z,1.50
2023-03-31T11:10:49.187Z,1.50
2023-03-31T11:13:33.863Z,1.50
2023-03-31T11:16:26.354Z,1.50
2023-03-31T11:19:03.527Z,1.60
2023-03-31T11:21:37.488Z,1.70
2023-03-31T11:24:46.893Z,1.70
2023-03-31T11:27:17.147Z,1.70
2023-03-31T11:30:24.319Z,1.70
2023-03-31T11:33:42.670Z,1.80
2023-03-31T11:36:36.896Z,1.80
2023-03-31T11:39:35.533Z,1.70
2023-03-31T11:42:08.717Z,1.70
2023-03-31T11:44:42.995Z,1.80
2023-03-31T11:47:17.230Z,1.70
2023-03-31T11:49:55.046Z,1.70
2023-03-31T11:52:31.232Z,1.70
2023-03-31T11:55:06.716Z,1.60
2023-03-31T11:57:42.985Z,1.70
2023-03-31T12:00:21.395Z,1.60
2023-03-31T12:02:53.658Z,1.60
2023-03-31T12:05:24.711Z,1.60
2023-03-31T12:08:03.718Z,1.70
2023-03-31T12:10:30.750Z,1.80
2023-03-31T12:13:22.696Z,1.80
2023-03-31T12:16:17.296Z,1.80
2023-03-31T12:18:56.338Z,1.80
2023-03-31T12:21:25.769Z,1.80
2023-03-31T12:23:52.660Z,1.70
2023-03-31T12:26:28.755Z,1.70
2023-03-31T12:28:59.416Z,1.70
2023-03-31T12:31:27.818Z,1.70
2023-03-31T12:33:58.401Z,1.80
2023-03-31T12:36:31.089Z,1.80
2023-03-31T12:39:23.297Z,1.90
2023-03-31T12:42:31.855Z,1.90
2023-03-31T12:45:07.496Z,1.70
2023-03-31T12:47:53.129Z,1.80
2023-03-31T12:50:32.262Z,1.70
2023-03-31T12:53:11.280Z,1.70
2023-03-31T12:55:43.815Z,1.60
2023-03-31T12:58:23.030Z,1.60
2023-03-31T13:01:11.006Z,1.50
2023-03-31T13:03:45.746Z,1.50
2023-03-31T13:06:28.059Z,1.60
2023-03-31T13:09:08.705Z,1.60
2023-03-31T13:11:38.561Z,1.60
2023-03-31T13:14:17.901Z,1.70
2023-03-31T13:16:45.580Z,1.80
2023-03-31T13:19:27.317Z,1.80
2023-03-31T13:21:56.519Z,1.90
2023-03-31T13:24:24.583Z,1.80
2023-03-31T13:26:57.647Z,1.90
2023-03-31T13:29:38.492Z,1.90
2023-03-31T13:32:08.341Z,1.80
2023-03-31T13:34:45.589Z,1.80
2023-03-31T13:38:01.541Z,1.90
2023-03-31T13:40:36.511Z,1.80
2023-03-31T13:43:29.819Z,1.80
2023-03-31T13:46:33.602Z,1.90
2023-03-31T13:49:25.853Z,2.00
2023-03-31T13:52:05.543Z,1.90
2023-03-31T13:55:06.212Z,1.80
2023-03-31T13:58:30.030Z,1.70
2023-03-31T14:01:13.301Z,1.70
2023-03-31T14:04:11.389Z,1.60
2023-03-31T14:06:41.497Z,1.60
2023-03-31T14:09:20.477Z,1.70
2023-03-31T14:11:47.372Z,1.70
2023-03-31T14:14:17.053Z,1.70
2023-03-31T14:16:58.256Z,1.70
2023-03-31T14:19:42.882Z,1.80
2023-03-31T14:22:47.470Z,1.90
2023-03-31T14:25:43.490Z,1.90
2023-03-31T14:28:36.235Z,1.90
2023-03-31T14:31:13.432Z,1.80
2023-03-31T14:34:13.771Z,1.80
2023-03-31T14:36:49.406Z,1.90
2023-03-31T14:39:19.012Z,1.90
2023-03-31T14:41:45.975Z,1.90
2023-03-31T14:44:16.171Z,1.80
2023-03-31T14:46:43.071Z,1.80
2023-03-31T14:49:30.041Z,1.80
2023-03-31T14:52:03.351Z,1.80
2023-03-31T14:54:37.251Z,1.80
2023-03-31T14:57:05.784Z,1.80
2023-03-31T14:59:35.329Z,1.80
2023-03-31T15:02:04.773Z,1.80
2023-03-31T15:04:44.783Z,1.80
2023-03-31T15:07:13.184Z,1.80
2023-03-31T15:09:49.843Z,1.80
2023-03-31T15:12:20.346Z,1.90
2023-03-31T15:14:50.184Z,1.90
2023-03-31T15:17:33.204Z,2.00
2023-03-31T15:20:04.582Z,2.00
2023-03-31T15:22:31.617Z,2.00
2023-03-31T15:24:58.581Z,1.90
2023-03-31T15:27:48.090Z,1.90
2023-03-31T15:30:21.987Z,1.80
2023-03-31T15:32:49.211Z,1.80
2023-03-31T15:35:30.717Z,1.90
2023-03-31T15:37:59.793Z,1.90
2023-03-31T15:40:36.614Z,1.80
2023-03-31T15:43:24.923Z,1.80
2023-03-31T15:45:54.702Z,1.70
2023-03-31T15:48:33.984Z,1.80
2023-03-31T15:51:06.446Z,1.70
2023-03-31T15:53:48.821Z,1.70
2023-03-31T15:56:42.226Z,1.70
2023-03-31T16:02:42.086Z,1.50
2023-03-31T16:05:27.172Z,1.50
2023-03-31T16:07:55.659Z,1.40
2023-03-31T16:10:23.343Z,1.40
2023-03-31T16:13:01.361Z,1.40
2023-03-31T16:15:36.397Z,1.40
2023-03-31T16:18:10.198Z,1.40
2023-03-31T16:20:45.824Z,1.40
2023-03-31T16:23:18.970Z,1.30
2023-03-31T16:25:46.615Z,1.30
2023-03-31T16:28:18.228Z,1.20
2023-03-31T16:30:46.141Z,1.20
2023-03-31T16:33:14.460Z,1.20
2023-03-31T16:35:43.852Z,1.20
2023-03-31T16:38:12.891Z,1.20
2023-03-31T16:40:44.503Z,1.20
2023-03-31T16:43:15.807Z,1.10
2023-03-31T16:45:59.516Z,1.10
2023-03-31T16:48:28.297Z,1.10
2023-03-31T16:50:57.688Z,1.00
2023-03-31T16:53:31.786Z,1.00
2023-03-31T16:55:58.746Z,1.00
2023-03-31T16:58:29.020Z,0.90
2023-03-31T17:00:57.375Z,0.80
2023-03-31T17:03:24.998Z,0.80
2023-03-31T17:08:41.986Z,0.70
2023-03-31T17:11:14.154Z,0.70
2023-03-31T17:13:43.342Z,0.60
2023-03-31T17:16:17.352Z,0.60
2023-03-31T17:18:49.309Z,0.50
2023-03-31T17:21:20.277Z,0.50
2023-03-31T17:23:47.790Z,0.50
2023-03-31T17:26:15.578Z,0.40
2023-03-31T17:28:42.955Z,0.30
2023-03-31T17:31:21.173Z,0.30
2023-03-31T17:33:48.667Z,0.20
2023-03-31T17:36:15.884Z,0.20
2023-03-31T17:38:42.869Z,0.10
2023-03-31T17:41:17.839Z,0.10
2023-03-31T17:43:45.967Z,0.00
2023-03-31T17:46:13.887Z,0.10
2023-03-31T17:48:41.576Z,0.00
2023-03-31T17:51:13.801Z,-0.10
2023-03-31T17:53:41.701Z,-0.10
2023-03-31T17:56:09.085Z,-0.10
2023-03-31T17:58:36.047Z,-0.10
2023-03-31T18:01:07.930Z,-0.20
2023-03-31T18:03:35.176Z,-0.20
2023-03-31T18:06:11.552Z,-0.20
2023-03-31T18:08:39.739Z,-0.30
2023-03-31T18:11:08.576Z,-0.30
2023-03-31T18:13:37.236Z,-0.50
2023-03-31T18:16:05.252Z,-0.50
2023-03-31T18:18:32.717Z,-0.50
2023-03-31T18:21:07.759Z,-0.50
2023-03-31T18:23:35.846Z,-0.60
2023-03-31T18:26:05.679Z,-0.60
2023-03-31T18:28:33.077Z,-0.70
2023-03-31T18:31:04.441Z,-0.60
2023-03-31T18:33:31.468Z,-0.70
2023-03-31T18:35:58.703Z,-0.70
2023-03-31T18:38:27.294Z,-0.70
2023-03-31T18:40:54.453Z,-0.70
2023-03-31T18:43:24.901Z,-0.80
2023-03-31T18:45:53.837Z,-0.70
2023-03-31T18:48:22.201Z,-0.70
2023-03-31T18:50:51.404Z,-0.90
2023-03-31T18:53:19.666Z,-0.90
2023-03-31T18:55:51.398Z,-1.00
2023-03-31T18:58:19.176Z,-1.00
2023-03-31T19:00:46.602Z,-1.00
2023-03-31T19:03:14.374Z,-1.00
2023-03-31T19:05:41.731Z,-1.00
2023-03-31T19:08:09.051Z,-1.10
2023-03-31T19:10:36.679Z,-1.10
2023-03-31T19:13:03.709Z,-1.10
2023-03-31T19:15:30.947Z,-1.10
2023-03-31T19:17:58.119Z,-1.20
2023-03-31T19:20:25.024Z,-1.20
2023-03-31T19:22:52.490Z,-1.30
2023-03-31T19:25:20.677Z,-1.30
2023-03-31T19:27:48.446Z,-1.40
2023-03-31T19:30:21.914Z,-1.40
2023-03-31T19:32:49.556Z,-1.30
2023-03-31T19:35:17.373Z,-1.40
2023-03-31T19:37:44.715Z,-1.40
2023-03-31T19:40:12.668Z,-1.40
2023-03-31T19:42:41.948Z,-1.40
2023-03-31T19:45:09.546Z,-1.30
2023-03-31T19:47:36.631Z,-1.50
2023-03-31T19:50:04.113Z,-1.60
2023-03-31T19:52:31.021Z,-1.60
2023-03-31T19:54:57.880Z,-1.60
2023-03-31T19:57:24.797Z,-1.60
2023-03-31T19:59:51.747Z,-1.70
2023-03-31T20:02:19.017Z,-1.70
2023-03-31T20:04:46.218Z,-1.80
2023-03-31T20:07:13.739Z,-1.80
2023-03-31T20:09:40.880Z,-1.80
2023-03-31T20:12:08.062Z,-1.90
2023-03-31T20:14:35.246Z,-1.90
2023-03-31T20:17:03.292Z,-2.00
2023-03-31T20:19:30.367Z,-2.00
2023-03-31T20:21:57.969Z,-2.00
2023-03-31T20:24:24.954Z,-2.00
2023-03-31T20:26:52.020Z,-2.00
2023-03-31T20:29:19.143Z,-2.10
2023-03-31T20:31:46.193Z,-2.00
2023-03-31T20:34:15.755Z,-2.00
2023-03-31T20:36:44.899Z,-2.10
2023-03-31T20:39:14.014Z,-2.10
2023-03-31T20:41:41.036Z,-2.10
2023-03-31T20:44:12.626Z,-2.20
2023-03-31T20:46:41.956Z,-2.10
2023-03-31T20:49:08.978Z,-2.20
2023-03-31T20:51:41.248Z,-2.20
2023-03-31T20:54:08.816Z,-2.10
2023-03-31T20:56:39.529Z,-2.30
2023-03-31T20:59:08.782Z,-2.30
2023-03-31T21:01:37.437Z,-2.40
2023-03-31T21:04:06.848Z,-2.50
2023-03-31T21:06:45.491Z,-2.40
2023-03-31T21:09:14.524Z,-2.50
2023-03-31T21:11:41.687Z,-2.50
2023-03-31T21:14:12.835Z,-2.50
2023-03-31T21:16:40.347Z,-2.50
2023-03-31T21:19:07.317Z,-2.50
2023-03-31T21:21:36.055Z,-2.60
2023-03-31T21:24:03.079Z,-2.60
2023-03-31T21:26:29.973Z,-2.60
2023-03-31T21:28:57.210Z,-2.70
2023-03-31T21:31:26.143Z,-2.70
2023-03-31T21:33:56.653Z,-2.80
2023-03-31T21:36:24.661Z,-2.60
2023-03-31T21:38:53.313Z,-2.60
2023-03-31T21:41:28.358Z,-2.70
2023-03-31T21:44:03.645Z,-2.70
2023-03-31T21:46:32.761Z,-2.70
2023-03-31T21:49:00.167Z,-2.70
2023-03-31T21:51:27.214Z,-2.70
2023-03-31T21:53:55.748Z,-2.90
2023-03-31T21:56:24.651Z,-2.90
2023-03-31T21:58:51.889Z,-2.80
2023-03-31T22:01:18.928Z,-2.90
2023-03-31T22:03:46.416Z,-2.90
2023-03-31T22:06:13.342Z,-2.90
2023-03-31T22:08:40.769Z,-2.90
2023-03-31T22:11:09.572Z,-3.10
2023-03-31T22:13:37.346Z,-3.10
2023-03-31T22:16:05.898Z,-3.10
2023-03-31T22:18:32.964Z,-3.10
2023-03-31T22:21:00.975Z,-2.90
2023-03-31T22:23:27.875Z,-2.90
2023-03-31T22:25:54.924Z,-3.10
2023-03-31T22:28:21.860Z,-3.10
2023-03-31T22:30:48.781Z,-3.20
2023-03-31T22:33:15.688Z,-3.10
2023-03-31T22:35:42.607Z,-3.20
2023-03-31T22:38:13.117Z,-3.20
2023-03-31T22:40:40.044Z,-3.30
2023-03-31T22:43:06.956Z,-3.20
2023-03-31T22:45:37.789Z,-3.30
2023-03-31T22:48:07.287Z,-3.30
2023-03-31T22:50:34.288Z,-3.40
2023-03-31T22:53:01.252Z,-3.30
2023-03-31T22:55:28.333Z,-3.30
2023-03-31T22:57:55.662Z,-3.30
2023-03-31T23:00:22.688Z,-3.30
2023-03-31T23:02:49.575Z,-3.40
2023-03-31T23:05:16.564Z,-3.40
2023-03-31T23:07:43.456Z,-3.40
2023-03-31T23:10:10.827Z,-3.50
2023-03-31T23:12:37.671Z,-3.40
2023-03-31T23:15:04.859Z,-3.50
2023-03-31T23:17:31.775Z,-3.50
2023-03-31T23:19:58.698Z,-3.50
2023-03-31T23:22:25.866Z,-3.50
2023-03-31T23:24:52.883Z,-3.60
2023-03-31T23:27:20.091Z,-3.60
2023-03-31T23:29:47.404Z,-3.60
2023-03-31T23:32:14.839Z,-3.70
2023-03-31T23:34:42.334Z,-3.60
2023-03-31T23:37:13.923Z,-3.60
2023-03-31T23:39:40.785Z,-3.50
2023-03-31T23:42:09.134Z,-3.60
2023-03-31T23:44:39.620Z,-3.50
2023-03-31T23:47:06.700Z,-3.60
2023-03-31T23:49:33.793Z,-3.60
2023-03-31T23:52:00.987Z,-3.50
2023-03-31T23:54:27.992Z,-3.70
2023-03-31T23:56:54.857Z,-3.70
2023-03-31T23:59:21.974Z,-3.60
